Time;durP1;ratioP1;P1;durP2;ratioP2;P2;SDS_P1;SDS_P2;PMS_P1;PMS_P2;Temp;Humidity;BMP_temperature;BMP_pressure;BME280_temperature;BME280_humidity;BME280_pressure;Samples;Min_cycle;Max_cycle;Signal;HPM_P1;HPM_P2
2021/01/18 00:00:48;;;;;;;8.33;3.73;;;;;;;;;;5061044;28;20198;-74
2021/01/18 00:03:16;;;;;;;7.03;3.70;;;;;;;;;;5060961;28;20963;-74
2021/01/18 00:05:43;;;;;;;6.73;3.70;;;;;;;;;;5060562;28;20499;-74
2021/01/18 00:08:10;;;;;;;9.23;3.67;;;;;;;;;;5060785;28;20825;-74
2021/01/18 00:10:37;;;;;;;7.50;4.10;;;;;;;;;;5060633;28;20432;-74
2021/01/18 00:13:04;;;;;;;11.93;4.03;;;;;;;;;;5060202;28;20485;-74
2021/01/18 00:15:31;;;;;;;9.07;4.00;;;;;;;;;;5060379;28;20915;-74
2021/01/18 00:17:58;;;;;;;10.57;4.03;;;;;;;;;;5060731;28;20540;-74
2021/01/18 00:20:26;;;;;;;7.53;3.60;;;;;;;;;;5060703;28;20452;-74
2021/01/18 00:22:53;;;;;;;7.40;4.03;;;;;;;;;;5060370;28;20482;-74
2021/01/18 00:25:21;;;;;;;11.80;3.70;;;;;;;;;;5060456;28;20469;-74
2021/01/18 00:27:48;;;;;;;9.03;5.47;;;;;;;;;;5060029;28;20489;-74
2021/01/18 00:30:16;;;;;;;8.63;4.67;;;;;;;;;;5060432;28;20540;-74
2021/01/18 00:32:44;;;;;;;10.40;3.93;;;;;;;;;;5059447;28;20473;-74
2021/01/18 00:35:12;;;;;;;10.53;3.70;;;;;;;;;;5060103;28;20461;-74
2021/01/18 00:37:41;;;;;;;11.30;3.83;;;;;;;;;;5060124;28;20477;-74
2021/01/18 00:40:08;;;;;;;7.40;3.57;;;;;;;;;;5059960;28;20484;-73
2021/01/18 00:42:35;;;;;;;8.90;3.27;;;;;;;;;;5059617;28;20522;-74
2021/01/18 00:45:03;;;;;;;5.60;3.23;;;;;;;;;;5060141;28;20527;-74
2021/01/18 00:47:30;;;;;;;5.93;3.73;;;;;;;;;;5060180;28;20449;-74
2021/01/18 00:49:57;;;;;;;7.27;3.50;;;;;;;;;;5060028;28;20430;-73
2021/01/18 00:52:24;;;;;;;9.87;3.80;;;;;;;;;;5060266;28;20525;-74
2021/01/18 00:54:52;;;;;;;12.00;3.93;;;;;;;;;;5059627;28;20577;-74
2021/01/18 00:57:19;;;;;;;8.73;3.73;;;;;;;;;;5059497;28;20791;-73
2021/01/18 00:59:46;;;;;;;8.27;4.40;;;;;;;;;;5060104;28;20520;-74
2021/01/18 01:02:13;;;;;;;8.73;4.17;;;;;;;;;;5059592;28;20456;-74
2021/01/18 01:04:41;;;;;;;13.97;4.73;;;;;;;;;;5059649;28;20969;-74
2021/01/18 01:07:08;;;;;;;9.37;4.53;;;;;;;;;;5059495;28;20452;-73
2021/01/18 01:09:35;;;;;;;8.90;4.47;;;;;;;;;;5059754;28;20442;-74
2021/01/18 01:12:03;;;;;;;8.80;3.90;;;;;;;;;;5059181;28;20816;-73
2021/01/18 01:14:30;;;;;;;7.87;4.13;;;;;;;;;;5059424;28;20517;-74
2021/01/18 01:16:57;;;;;;;9.50;3.80;;;;;;;;;;5059360;28;20449;-74
2021/01/18 01:19:24;;;;;;;7.37;4.17;;;;;;;;;;5059421;28;20499;-74
2021/01/18 01:21:51;;;;;;;9.03;4.33;;;;;;;;;;5059351;28;20524;-73
2021/01/18 01:24:19;;;;;;;9.13;4.40;;;;;;;;;;5059062;28;20575;-73
2021/01/18 01:26:47;;;;;;;7.10;4.90;;;;;;;;;;5058768;28;20433;-73
2021/01/18 01:29:15;;;;;;;8.77;4.47;;;;;;;;;;5059355;28;20532;-73
2021/01/18 01:31:42;;;;;;;6.83;4.77;;;;;;;;;;5059433;28;20434;-74
2021/01/18 01:34:09;;;;;;;7.00;4.67;;;;;;;;;;5058862;28;21710;-73
2021/01/18 01:36:41;;;;;;;8.97;4.60;;;;;;;;;;5059121;28;20448;-74
2021/01/18 01:39:08;;;;;;;9.00;4.50;;;;;;;;;;5058726;28;20560;-74
2021/01/18 01:41:35;;;;;;;9.60;4.53;;;;;;;;;;5058979;28;20446;-74
2021/01/18 01:44:02;;;;;;;6.53;4.37;;;;;;;;;;5058475;28;20532;-74
2021/01/18 01:46:30;;;;;;;8.57;4.77;;;;;;;;;;5059111;28;20476;-74
2021/01/18 01:48:57;;;;;;;11.17;4.97;;;;;;;;;;5058890;28;20454;-74
2021/01/18 01:51:26;;;;;;;8.13;4.13;;;;;;;;;;5058904;28;20505;-74
2021/01/18 01:53:53;;;;;;;9.00;4.67;;;;;;;;;;5058414;28;20489;-73
2021/01/18 01:56:20;;;;;;;7.80;4.13;;;;;;;;;;5058705;28;20445;-74
2021/01/18 01:58:51;;;;;;;9.13;5.27;;;;;;;;;;5058477;28;20452;-74
2021/01/18 02:01:19;;;;;;;9.27;4.30;;;;;;;;;;5058746;28;20445;-73
2021/01/18 02:03:49;;;;;;;7.50;3.87;;;;;;;;;;5058426;28;20446;-73
2021/01/18 02:06:16;;;;;;;11.73;4.93;;;;;;;;;;5058442;28;20439;-74
2021/01/18 02:08:43;;;;;;;5.93;3.97;;;;;;;;;;5058672;28;20453;-74
2021/01/18 02:11:10;;;;;;;7.53;4.03;;;;;;;;;;5058595;28;20512;-74
2021/01/18 02:13:57;;;;;;;10.40;4.47;;;;;;;;;;5057767;28;21004;-74
2021/01/18 02:16:25;;;;;;;7.73;4.53;;;;;;;;;;5058548;28;20517;-74
2021/01/18 02:19:01;;;;;;;9.37;4.50;;;;;;;;;;5058259;28;20437;-73
2021/01/18 02:21:52;;;;;;;7.73;3.93;;;;;;;;;;5058172;28;20453;-74
2021/01/18 02:24:36;;;;;;;7.10;4.47;;;;;;;;;;5058293;28;20461;-73
2021/01/18 02:27:23;;;;;;;10.57;4.73;;;;;;;;;;5057277;28;20437;-74
2021/01/18 02:29:59;;;;;;;6.13;3.87;;;;;;;;;;5032837;28;20441;-74
2021/01/18 02:32:39;;;;;;;7.57;4.40;;;;;;;;;;5055596;28;20432;-73
2021/01/18 02:35:23;;;;;;;7.17;3.80;;;;;;;;;;5062303;28;20476;-73
2021/01/18 02:38:00;;;;;;;9.83;4.27;;;;;;;;;;5038468;28;20509;-74
2021/01/18 02:40:29;;;;;;;8.23;4.13;;;;;;;;;;5056157;28;20528;-73
2021/01/18 02:42:59;;;;;;;9.80;4.00;;;;;;;;;;5056890;28;20437;-73
2021/01/18 02:45:26;;;;;;;7.07;3.83;;;;;;;;;;5054350;28;20987;-73
2021/01/18 02:47:54;;;;;;;8.80;4.27;;;;;;;;;;5057093;28;20520;-73
2021/01/18 02:50:22;;;;;;;8.73;4.03;;;;;;;;;;5056468;28;20450;-74
2021/01/18 02:52:49;;;;;;;4.87;3.37;;;;;;;;;;5056434;28;20434;-73
2021/01/18 02:55:17;;;;;;;9.00;3.70;;;;;;;;;;5056597;28;20848;-73
2021/01/18 02:57:44;;;;;;;9.10;4.00;;;;;;;;;;5055620;28;20449;-74
2021/01/18 03:00:12;;;;;;;7.93;3.67;;;;;;;;;;5056965;28;20445;-74
2021/01/18 03:02:44;;;;;;;7.43;4.10;;;;;;;;;;5056655;28;20441;-74
2021/01/18 03:05:26;;;;;;;6.97;3.80;;;;;;;;;;5056469;28;20493;-73
2021/01/18 03:07:56;;;;;;;5.63;4.03;;;;;;;;;;5054947;28;20925;-74
2021/01/18 03:10:29;;;;;;;9.80;4.10;;;;;;;;;;5056146;28;20521;-73
2021/01/18 03:12:58;;;;;;;8.27;3.67;;;;;;;;;;5055971;28;20964;-73
2021/01/18 03:15:26;;;;;;;6.87;4.43;;;;;;;;;;5056849;28;20528;-74
2021/01/18 03:17:55;;;;;;;6.57;3.47;;;;;;;;;;5057355;28;20556;-74
2021/01/18 03:20:22;;;;;;;5.07;3.97;;;;;;;;;;5057739;28;20456;-74
2021/01/18 03:22:49;;;;;;;10.23;4.03;;;;;;;;;;5057442;28;20874;-74
2021/01/18 03:25:16;;;;;;;10.03;3.63;;;;;;;;;;5057408;28;20548;-74
2021/01/18 03:27:49;;;;;;;10.50;4.27;;;;;;;;;;5057304;28;20473;-73
2021/01/18 03:30:16;;;;;;;4.83;3.60;;;;;;;;;;5057467;28;20887;-74
2021/01/18 03:32:46;;;;;;;8.03;4.27;;;;;;;;;;5057312;28;20456;-74
2021/01/18 03:35:13;;;;;;;5.23;3.70;;;;;;;;;;5057236;28;20572;-73
2021/01/18 03:37:41;;;;;;;9.53;3.63;;;;;;;;;;5057234;28;20944;-74
2021/01/18 03:40:08;;;;;;;7.67;3.90;;;;;;;;;;5057299;28;20500;-74
2021/01/18 03:42:35;;;;;;;5.80;3.73;;;;;;;;;;5058390;28;20528;-74
2021/01/18 03:45:04;;;;;;;7.27;3.53;;;;;;;;;;5058121;28;20545;-74
2021/01/18 03:47:31;;;;;;;5.13;3.40;;;;;;;;;;5058050;28;20464;-74
2021/01/18 03:49:58;;;;;;;8.07;3.90;;;;;;;;;;5057313;28;20453;-74
2021/01/18 03:52:25;;;;;;;7.83;3.50;;;;;;;;;;5057413;28;21024;-74
2021/01/18 03:54:51;;;;;;;7.03;3.67;;;;;;;;;;5057324;28;20484;-74
2021/01/18 03:57:18;;;;;;;4.73;3.30;;;;;;;;;;5056782;28;20433;-73
2021/01/18 03:59:45;;;;;;;8.63;4.23;;;;;;;;;;5057358;28;20454;-74
2021/01/18 04:02:13;;;;;;;7.57;4.23;;;;;;;;;;5056880;28;20877;-74
2021/01/18 04:04:41;;;;;;;6.63;3.53;;;;;;;;;;5057230;28;20501;-74
2021/01/18 04:07:11;;;;;;;8.37;3.30;;;;;;;;;;5057314;28;20484;-74
2021/01/18 04:09:38;;;;;;;6.90;3.60;;;;;;;;;;5060971;28;20449;-73
2021/01/18 04:12:05;;;;;;;9.10;3.53;;;;;;;;;;5060570;28;20445;-73
2021/01/18 04:14:32;;;;;;;5.90;3.37;;;;;;;;;;5060654;28;20572;-74
2021/01/18 04:16:59;;;;;;;4.20;3.03;;;;;;;;;;5060676;28;20476;-74
2021/01/18 04:19:27;;;;;;;4.00;2.73;;;;;;;;;;5060650;28;20453;-73
2021/01/18 04:21:54;;;;;;;3.40;3.00;;;;;;;;;;5060287;28;20778;-74
2021/01/18 04:24:21;;;;;;;6.10;4.07;;;;;;;;;;5060467;28;20552;-73
2021/01/18 04:26:49;;;;;;;4.13;2.97;;;;;;;;;;5059861;28;20450;-73
2021/01/18 04:29:16;;;;;;;9.37;3.23;;;;;;;;;;5060498;28;20532;-74
2021/01/18 04:31:43;;;;;;;3.97;3.00;;;;;;;;;;5060176;28;20477;-73
2021/01/18 04:34:10;;;;;;;6.40;3.10;;;;;;;;;;5060216;28;20556;-74
2021/01/18 04:36:39;;;;;;;8.87;4.23;;;;;;;;;;5060368;28;20523;-73
2021/01/18 04:39:07;;;;;;;4.53;3.10;;;;;;;;;;5060044;28;20477;-73
2021/01/18 04:41:35;;;;;;;9.30;3.63;;;;;;;;;;5059664;28;20456;-73
2021/01/18 04:44:04;;;;;;;5.27;3.47;;;;;;;;;;5060049;28;20521;-74
2021/01/18 04:46:36;;;;;;;11.07;4.10;;;;;;;;;;5059858;28;20957;-73
2021/01/18 04:49:04;;;;;;;8.13;3.30;;;;;;;;;;5059935;28;20450;-74
2021/01/18 04:51:33;;;;;;;8.83;3.00;;;;;;;;;;5060071;28;20480;-74
2021/01/18 04:54:08;;;;;;;7.80;3.27;;;;;;;;;;5059638;28;21054;-73
2021/01/18 04:56:41;;;;;;;7.23;3.43;;;;;;;;;;5059342;28;20527;-74
2021/01/18 04:59:11;;;;;;;4.97;2.97;;;;;;;;;;5059736;28;20456;-74
2021/01/18 05:01:41;;;;;;;7.43;3.50;;;;;;;;;;5060105;28;20457;-73
2021/01/18 05:04:13;;;;;;;6.20;3.63;;;;;;;;;;5059569;28;20532;-73
2021/01/18 05:06:46;;;;;;;4.30;3.17;;;;;;;;;;5059598;28;20785;-73
2021/01/18 05:09:29;;;;;;;6.57;3.73;;;;;;;;;;5059505;28;20445;-74
2021/01/18 05:11:59;;;;;;;4.70;3.20;;;;;;;;;;5059230;28;20465;-74
2021/01/18 05:14:29;;;;;;;6.10;3.90;;;;;;;;;;5059215;28;20903;-74
2021/01/18 05:16:57;;;;;;;6.10;3.87;;;;;;;;;;5059522;28;20456;-74
2021/01/18 05:19:25;;;;;;;8.57;3.90;;;;;;;;;;5058710;28;20445;-73
2021/01/18 05:21:52;;;;;;;5.37;3.93;;;;;;;;;;5059474;28;20441;-73
2021/01/18 05:24:19;;;;;;;8.57;4.40;;;;;;;;;;5058731;28;20470;-74
2021/01/18 05:27:09;;;;;;;10.03;4.50;;;;;;;;;;5058609;28;21000;-74
2021/01/18 05:29:36;;;;;;;8.83;3.87;;;;;;;;;;5058759;28;20466;-74
2021/01/18 05:32:19;;;;;;;8.40;4.07;;;;;;;;;;5058858;28;20481;-70
2021/01/18 05:34:50;;;;;;;7.63;4.23;;;;;;;;;;5057349;28;20556;-71
2021/01/18 05:37:17;;;;;;;7.87;4.00;;;;;;;;;;5059000;28;20461;-70
2021/01/18 05:39:44;;;;;;;8.30;3.93;;;;;;;;;;5058732;28;20535;-70
2021/01/18 05:42:19;;;;;;;8.60;4.03;;;;;;;;;;5058756;28;20445;-70
2021/01/18 05:44:46;;;;;;;10.40;4.17;;;;;;;;;;5058559;28;20477;-70
2021/01/18 05:47:15;;;;;;;7.23;4.23;;;;;;;;;;5058831;28;20429;-70
2021/01/18 05:49:44;;;;;;;6.20;3.97;;;;;;;;;;5058939;28;20446;-70
2021/01/18 05:52:24;;;;;;;6.10;3.80;;;;;;;;;;5058532;28;20449;-73
2021/01/18 05:55:10;;;;;;;8.20;4.17;;;;;;;;;;5058576;28;20484;-73
2021/01/18 05:57:38;;;;;;;11.50;4.07;;;;;;;;;;5058174;28;20445;-74
2021/01/18 06:00:06;;;;;;;8.33;3.90;;;;;;;;;;5058536;28;20445;-74
2021/01/18 06:02:33;;;;;;;9.47;4.10;;;;;;;;;;5058382;28;20473;-73
2021/01/18 06:05:06;;;;;;;8.50;3.77;;;;;;;;;;5058220;28;20973;-74
2021/01/18 06:07:33;;;;;;;6.77;3.80;;;;;;;;;;5058844;28;20450;-74
2021/01/18 06:10:00;;;;;;;10.93;4.47;;;;;;;;;;5058415;28;20457;-74
2021/01/18 06:12:28;;;;;;;7.77;3.93;;;;;;;;;;5057989;28;20879;-73
2021/01/18 06:15:09;;;;;;;11.03;4.30;;;;;;;;;;5058083;28;20567;-74
2021/01/18 06:17:38;;;;;;;8.77;4.10;;;;;;;;;;5056168;28;20520;-74
2021/01/18 06:20:06;;;;;;;6.90;4.33;;;;;;;;;;5057841;28;20441;-74
2021/01/18 06:22:33;;;;;;;7.27;3.47;;;;;;;;;;5058020;28;20485;-74
2021/01/18 06:25:11;;;;;;;10.23;4.70;;;;;;;;;;5058323;28;20456;-74
2021/01/18 06:27:38;;;;;;;6.87;3.83;;;;;;;;;;5056031;28;20548;-74
2021/01/18 06:30:05;;;;;;;8.57;4.00;;;;;;;;;;5057146;28;20457;-74
2021/01/18 06:32:33;;;;;;;9.43;3.97;;;;;;;;;;5057278;28;20513;-74
2021/01/18 06:35:01;;;;;;;11.70;3.80;;;;;;;;;;5057658;28;20915;-74
2021/01/18 06:37:29;;;;;;;8.77;3.50;;;;;;;;;;5057956;28;20434;-74
2021/01/18 06:39:57;;;;;;;7.67;4.27;;;;;;;;;;5052813;28;20560;-75
2021/01/18 06:42:24;;;;;;;9.60;4.17;;;;;;;;;;5053682;28;20536;-74
2021/01/18 06:44:52;;;;;;;9.77;3.57;;;;;;;;;;5055317;28;20480;-75
2021/01/18 06:47:25;;;;;;;10.90;4.73;;;;;;;;;;5057084;28;20450;-74
2021/01/18 06:49:58;;;;;;;6.90;4.17;;;;;;;;;;5056744;28;20453;-75
2021/01/18 06:52:27;;;;;;;7.73;4.00;;;;;;;;;;5057153;28;20445;-74
2021/01/18 06:55:01;;;;;;;9.20;3.73;;;;;;;;;;5056973;28;20524;-75
2021/01/18 06:57:49;;;;;;;9.60;5.30;;;;;;;;;;5055618;28;20485;-75
2021/01/18 07:00:17;;;;;;;6.23;3.93;;;;;;;;;;5031094;28;21017;-74
2021/01/18 07:02:53;;;;;;;8.50;3.83;;;;;;;;;;5056533;28;20472;-74
2021/01/18 07:05:28;;;;;;;9.47;3.90;;;;;;;;;;5056706;28;20475;-74
2021/01/18 07:07:57;;;;;;;9.70;3.97;;;;;;;;;;5056650;28;20448;-74
2021/01/18 07:10:25;;;;;;;8.40;3.70;;;;;;;;;;5056572;28;20450;-74
2021/01/18 07:12:52;;;;;;;6.83;3.90;;;;;;;;;;5056463;28;20453;-74
2021/01/18 07:15:20;;;;;;;10.30;3.53;;;;;;;;;;5056072;28;20844;-74
2021/01/18 07:17:54;;;;;;;7.50;4.00;;;;;;;;;;5056864;28;20445;-74
2021/01/18 07:20:25;;;;;;;7.40;3.20;;;;;;;;;;5056671;28;20495;-74
2021/01/18 07:23:29;;;;;;;8.27;3.87;;;;;;;;;;5053802;28;20449;-74
2021/01/18 07:26:17;;;;;;;5.23;3.27;;;;;;;;;;5056582;28;20491;-74
2021/01/18 07:28:47;;;;;;;5.30;3.03;;;;;;;;;;5030874;28;20445;-74
2021/01/18 07:31:17;;;;;;;4.20;2.93;;;;;;;;;;5056209;28;20442;-74
2021/01/18 07:33:47;;;;;;;6.50;3.13;;;;;;;;;;5055312;28;20479;-74
2021/01/18 07:36:23;;;;;;;7.33;4.07;;;;;;;;;;5056340;28;20442;-74
2021/01/18 07:38:50;;;;;;;11.83;4.50;;;;;;;;;;5056090;28;20464;-74
2021/01/18 07:41:20;;;;;;;6.83;3.97;;;;;;;;;;5056017;28;20487;-74
2021/01/18 07:43:49;;;;;;;6.70;3.73;;;;;;;;;;5058880;28;20446;-74
2021/01/18 07:46:40;;;;;;;8.37;3.57;;;;;;;;;;5055612;28;20433;-74
2021/01/18 07:49:26;;;;;;;7.00;3.17;;;;;;;;;;5059426;28;20808;-75
2021/01/18 07:52:11;;;;;;;7.93;3.63;;;;;;;;;;5058746;28;20528;-74
2021/01/18 07:54:38;;;;;;;10.13;3.70;;;;;;;;;;5059683;28;20584;-77
2021/01/18 07:57:25;;;;;;;6.80;3.43;;;;;;;;;;5059254;28;20866;-79
2021/01/18 08:00:08;;;;;;;4.53;3.47;;;;;;;;;;5059673;28;20495;-76
2021/01/18 08:02:36;;;;;;;4.67;2.57;;;;;;;;;;5058398;28;20500;-75
2021/01/18 08:05:18;;;;;;;4.67;2.60;;;;;;;;;;5058683;28;20465;-75
2021/01/18 08:08:06;;;;;;;8.07;3.50;;;;;;;;;;5057307;28;20455;-75
2021/01/18 08:10:53;;;;;;;7.27;2.83;;;;;;;;;;5054991;28;20460;-75
2021/01/18 08:13:43;;;;;;;7.00;2.87;;;;;;;;;;5059271;28;20502;-75
2021/01/18 08:16:11;;;;;;;8.27;2.70;;;;;;;;;;5059597;28;20488;-75
2021/01/18 08:18:50;;;;;;;5.77;2.73;;;;;;;;;;5059797;28;20457;-75
2021/01/18 08:21:35;;;;;;;8.43;2.60;;;;;;;;;;5059169;28;20501;-76
2021/01/18 08:24:03;;;;;;;14.80;9.47;;;;;;;;;;5059416;28;20473;-76
2021/01/18 08:26:50;;;;;;;8.53;3.53;;;;;;;;;;5051168;28;20459;-76
2021/01/18 08:29:31;;;;;;;7.53;3.10;;;;;;;;;;5058673;28;20451;-76
2021/01/18 08:32:13;;;;;;;6.40;2.97;;;;;;;;;;5059751;28;20537;-75
2021/01/18 08:34:42;;;;;;;4.80;3.07;;;;;;;;;;5057803;28;20481;-76
2021/01/18 08:37:10;;;;;;;8.73;3.17;;;;;;;;;;5058976;28;20446;-76
2021/01/18 08:39:38;;;;;;;9.40;4.00;;;;;;;;;;5059348;28;20847;-76
2021/01/18 08:42:06;;;;;;;12.57;2.93;;;;;;;;;;5058994;28;20449;-75
2021/01/18 08:44:34;;;;;;;8.43;3.13;;;;;;;;;;5059651;28;21015;-76
2021/01/18 08:47:03;;;;;;;7.17;2.93;;;;;;;;;;5059346;28;20430;-74
2021/01/18 08:49:32;;;;;;;8.63;3.53;;;;;;;;;;5056064;28;20481;-74
2021/01/18 08:52:00;;;;;;;9.50;2.83;;;;;;;;;;5058834;28;20456;-75
2021/01/18 08:54:28;;;;;;;8.67;4.13;;;;;;;;;;5057671;28;20533;-74
2021/01/18 08:57:10;;;;;;;9.23;3.53;;;;;;;;;;5058688;28;20445;-75
2021/01/18 08:59:36;;;;;;;8.10;3.13;;;;;;;;;;5058234;28;20457;-75
2021/01/18 09:02:06;;;;;;;5.93;3.00;;;;;;;;;;5058964;28;20456;-75
2021/01/18 09:04:33;;;;;;;8.93;3.37;;;;;;;;;;5055980;28;20888;-74
2021/01/18 09:07:03;;;;;;;10.10;3.50;;;;;;;;;;5059487;28;20480;-74
2021/01/18 09:09:32;;;;;;;8.87;3.30;;;;;;;;;;5059054;28;20835;-74
2021/01/18 09:12:01;;;;;;;9.57;3.43;;;;;;;;;;5058265;28;20483;-74
2021/01/18 09:14:30;;;;;;;7.07;3.30;;;;;;;;;;5058330;28;20898;-75
2021/01/18 09:17:06;;;;;;;6.27;3.63;;;;;;;;;;5058719;28;20796;-75
2021/01/18 09:19:33;;;;;;;7.03;3.37;;;;;;;;;;5053912;28;20460;-75
2021/01/18 09:22:00;;;;;;;5.33;3.03;;;;;;;;;;5058220;28;20884;-75
2021/01/18 09:24:28;;;;;;;9.23;3.90;;;;;;;;;;5058148;28;20511;-75
2021/01/18 09:26:55;;;;;;;7.40;3.40;;;;;;;;;;5058563;28;20540;-74
2021/01/18 09:29:22;;;;;;;3.77;3.13;;;;;;;;;;5060436;28;20453;-74
2021/01/18 09:31:50;;;;;;;3.30;2.97;;;;;;;;;;5061645;28;20477;-75
2021/01/18 09:34:17;;;;;;;4.63;3.17;;;;;;;;;;5058313;28;20481;-74
2021/01/18 09:36:44;;;;;;;6.63;3.37;;;;;;;;;;5056487;28;20892;-74
2021/01/18 09:39:17;;;;;;;8.70;3.57;;;;;;;;;;5057876;28;20838;-74
2021/01/18 09:42:05;;;;;;;7.70;3.30;;;;;;;;;;5052054;28;21047;-74
2021/01/18 09:44:33;;;;;;;6.83;3.47;;;;;;;;;;5057852;28;20476;-74
2021/01/18 09:47:03;;;;;;;10.13;3.70;;;;;;;;;;5057704;28;20812;-74
2021/01/18 09:49:30;;;;;;;12.00;4.17;;;;;;;;;;5056613;28;20452;-74
2021/01/18 09:51:57;;;;;;;13.57;5.50;;;;;;;;;;5051465;28;20540;-74
2021/01/18 09:54:24;;;;;;;7.27;4.13;;;;;;;;;;5057531;28;20526;-74
2021/01/18 09:56:53;;;;;;;6.30;3.63;;;;;;;;;;5057183;28;20465;-74
2021/01/18 09:59:22;;;;;;;11.77;3.97;;;;;;;;;;5057536;28;20528;-74
2021/01/18 10:01:50;;;;;;;17.70;4.63;;;;;;;;;;5049797;28;20457;-74
2021/01/18 10:04:22;;;;;;;8.40;4.57;;;;;;;;;;5057123;28;20540;-74
2021/01/18 10:06:49;;;;;;;8.47;3.97;;;;;;;;;;5057484;28;20433;-74
2021/01/18 10:09:20;;;;;;;12.87;4.27;;;;;;;;;;5057505;28;20509;-74
2021/01/18 10:11:47;;;;;;;11.80;5.07;;;;;;;;;;5057395;28;20488;-74
2021/01/18 10:14:17;;;;;;;17.97;4.60;;;;;;;;;;5056889;28;20825;-74
2021/01/18 10:16:57;;;;;;;6.20;3.73;;;;;;;;;;5057561;28;20438;-74
2021/01/18 10:19:24;;;;;;;9.57;4.07;;;;;;;;;;5057328;28;20492;-74
2021/01/18 10:21:52;;;;;;;11.67;3.63;;;;;;;;;;5056883;28;20589;-74
2021/01/18 10:24:25;;;;;;;19.40;4.53;;;;;;;;;;5057111;28;20461;-74
2021/01/18 10:26:59;;;;;;;11.23;3.90;;;;;;;;;;5056699;28;20512;-74
2021/01/18 10:29:27;;;;;;;10.77;4.10;;;;;;;;;;5057114;28;20521;-74
2021/01/18 10:31:54;;;;;;;7.63;4.13;;;;;;;;;;5056915;28;20532;-74
2021/01/18 10:34:34;;;;;;;9.10;4.47;;;;;;;;;;5056485;28;20609;-74
2021/01/18 10:37:19;;;;;;;5.33;4.23;;;;;;;;;;5056476;28;20906;-72
2021/01/18 10:39:46;;;;;;;6.90;3.90;;;;;;;;;;5056723;28;20505;-72
2021/01/18 10:42:15;;;;;;;11.33;4.30;;;;;;;;;;5050199;28;20452;-72
2021/01/18 10:44:48;;;;;;;6.07;3.80;;;;;;;;;;5056151;28;20473;-72
2021/01/18 10:47:15;;;;;;;6.73;3.57;;;;;;;;;;5055100;28;21059;-72
2021/01/18 10:49:50;;;;;;;11.77;3.80;;;;;;;;;;5057098;28;20814;-72
2021/01/18 10:52:18;;;;;;;7.90;3.87;;;;;;;;;;5054261;28;20484;-72
2021/01/18 10:54:58;;;;;;;15.03;4.03;;;;;;;;;;5050823;28;20499;-72
2021/01/18 10:57:41;;;;;;;9.43;3.83;;;;;;;;;;5055456;28;20457;-72
2021/01/18 11:00:09;;;;;;;10.00;4.03;;;;;;;;;;5066321;28;20968;-72
2021/01/18 11:02:37;;;;;;;8.97;4.07;;;;;;;;;;5056334;28;20445;-72
2021/01/18 11:05:06;;;;;;;8.60;4.13;;;;;;;;;;5052946;28;20477;-71
2021/01/18 11:07:34;;;;;;;6.77;3.87;;;;;;;;;;5054981;28;20461;-71
2021/01/18 11:10:14;;;;;;;6.83;3.50;;;;;;;;;;5056420;28;20451;-71
2021/01/18 11:12:42;;;;;;;6.27;3.50;;;;;;;;;;5056084;28;20450;-72
2021/01/18 11:15:10;;;;;;;10.17;3.43;;;;;;;;;;5055544;28;20523;-72
2021/01/18 11:17:38;;;;;;;7.03;3.50;;;;;;;;;;5055497;28;20463;-72
2021/01/18 11:20:08;;;;;;;7.30;3.87;;;;;;;;;;5059159;28;20511;-73
2021/01/18 11:22:36;;;;;;;9.50;3.93;;;;;;;;;;5058130;28;20455;-73
2021/01/18 11:25:03;;;;;;;5.33;4.10;;;;;;;;;;5058055;28;20505;-74
2021/01/18 11:27:30;;;;;;;10.53;4.70;;;;;;;;;;5058596;28;20485;-74
2021/01/18 11:29:57;;;;;;;13.37;4.67;;;;;;;;;;5057841;28;21014;-74
2021/01/18 11:32:24;;;;;;;8.70;5.00;;;;;;;;;;5055559;28;20465;-74
2021/01/18 11:34:51;;;;;;;10.93;4.57;;;;;;;;;;5058630;28;20976;-71
2021/01/18 11:37:19;;;;;;;6.33;4.90;;;;;;;;;;5059863;28;20453;-73
2021/01/18 11:39:46;;;;;;;11.00;4.50;;;;;;;;;;5060065;28;20568;-74
2021/01/18 11:42:13;;;;;;;7.80;4.60;;;;;;;;;;5059636;28;20472;-73
2021/01/18 11:44:40;;;;;;;14.00;5.50;;;;;;;;;;5058324;28;20500;-74
2021/01/18 11:47:07;;;;;;;8.50;4.97;;;;;;;;;;5058734;28;20468;-73
2021/01/18 11:49:35;;;;;;;9.70;5.03;;;;;;;;;;5058519;28;20449;-74
2021/01/18 11:52:02;;;;;;;12.53;6.07;;;;;;;;;;5058367;28;20522;-72
2021/01/18 11:54:31;;;;;;;10.10;6.10;;;;;;;;;;5057976;28;21038;-71
2021/01/18 11:56:58;;;;;;;8.80;6.17;;;;;;;;;;5057811;28;20537;-71
2021/01/18 11:59:25;;;;;;;22.57;12.27;;;;;;;;;;5057177;28;20457;-73
2021/01/18 12:01:54;;;;;;;10.80;5.37;;;;;;;;;;5059762;28;20445;-73
2021/01/18 12:04:21;;;;;;;8.50;4.70;;;;;;;;;;5059643;28;20597;-73
2021/01/18 12:06:48;;;;;;;9.60;5.57;;;;;;;;;;5058147;28;20445;-73
2021/01/18 12:09:16;;;;;;;12.70;7.07;;;;;;;;;;5054814;28;20443;-73
2021/01/18 12:11:44;;;;;;;13.50;7.77;;;;;;;;;;5059326;28;20476;-73
2021/01/18 12:14:12;;;;;;;12.77;8.23;;;;;;;;;;5059652;28;20461;-73
2021/01/18 12:16:39;;;;;;;10.20;7.13;;;;;;;;;;5058114;28;20484;-73
2021/01/18 12:19:07;;;;;;;14.93;7.60;;;;;;;;;;5059812;28;20445;-73
2021/01/18 12:21:41;;;;;;;12.00;7.77;;;;;;;;;;5059351;28;21022;-73
2021/01/18 12:24:08;;;;;;;16.33;7.53;;;;;;;;;;5060084;28;20515;-73
2021/01/18 12:26:35;;;;;;;18.30;7.57;;;;;;;;;;5059156;28;20437;-73
2021/01/18 12:29:04;;;;;;;15.30;8.20;;;;;;;;;;5058282;28;20445;-72
2021/01/18 12:31:34;;;;;;;15.70;7.87;;;;;;;;;;5059016;28;20567;-73
2021/01/18 12:34:03;;;;;;;10.57;7.67;;;;;;;;;;5053077;28;20436;-73
2021/01/18 12:36:30;;;;;;;12.63;8.10;;;;;;;;;;5057511;28;20491;-73
2021/01/18 12:38:57;;;;;;;14.00;7.70;;;;;;;;;;5059334;28;20477;-74
2021/01/18 12:41:24;;;;;;;16.87;9.10;;;;;;;;;;5058922;28;20536;-74
2021/01/18 12:43:51;;;;;;;16.80;9.23;;;;;;;;;;5059543;28;20473;-74
2021/01/18 12:46:20;;;;;;;18.03;9.40;;;;;;;;;;5058984;28;20437;-74
2021/01/18 12:48:47;;;;;;;13.40;8.87;;;;;;;;;;5058821;28;20446;-73
2021/01/18 12:51:14;;;;;;;15.60;7.93;;;;;;;;;;5058140;28;20968;-75
2021/01/18 12:53:44;;;;;;;15.20;8.93;;;;;;;;;;5059384;28;20448;-74
2021/01/18 12:56:13;;;;;;;14.90;8.20;;;;;;;;;;5054005;28;20489;-74
2021/01/18 12:58:40;;;;;;;17.70;9.43;;;;;;;;;;5058868;28;20440;-75
2021/01/18 13:01:08;;;;;;;16.80;10.53;;;;;;;;;;5058704;28;20863;-75
2021/01/18 13:03:36;;;;;;;15.00;8.57;;;;;;;;;;5057968;28;20932;-74
2021/01/18 13:06:04;;;;;;;13.03;7.97;;;;;;;;;;5058843;28;20465;-73
2021/01/18 13:08:31;;;;;;;18.07;9.63;;;;;;;;;;5058625;28;20441;-73
2021/01/18 13:10:59;;;;;;;16.60;11.20;;;;;;;;;;5058758;28;20595;-73
2021/01/18 13:13:26;;;;;;;16.93;9.90;;;;;;;;;;5058192;28;20524;-74
2021/01/18 13:15:53;;;;;;;16.17;8.83;;;;;;;;;;5055877;28;20568;-74
2021/01/18 13:18:20;;;;;;;18.57;9.33;;;;;;;;;;5058596;28;20944;-74
2021/01/18 13:20:48;;;;;;;14.73;9.37;;;;;;;;;;5058709;28;20437;-74
2021/01/18 13:23:15;;;;;;;16.30;9.50;;;;;;;;;;5057904;28;20508;-74
2021/01/18 13:25:42;;;;;;;13.00;8.67;;;;;;;;;;5058469;28;20540;-74
2021/01/18 13:28:09;;;;;;;15.70;8.30;;;;;;;;;;5057851;28;20925;-73
2021/01/18 13:30:37;;;;;;;17.77;8.67;;;;;;;;;;5058326;28;20940;-74
2021/01/18 13:33:04;;;;;;;13.33;8.60;;;;;;;;;;5057946;28;20917;-73
2021/01/18 13:35:32;;;;;;;13.60;7.87;;;;;;;;;;5057727;28;20485;-73
2021/01/18 13:38:00;;;;;;;14.60;8.90;;;;;;;;;;5057966;28;20556;-73
2021/01/18 13:40:28;;;;;;;14.27;8.80;;;;;;;;;;5054744;28;20453;-73
2021/01/18 13:42:56;;;;;;;18.13;10.53;;;;;;;;;;5058360;28;20448;-71
2021/01/18 13:45:24;;;;;;;18.87;10.90;;;;;;;;;;5057147;28;20603;-72
2021/01/18 13:47:51;;;;;;;23.07;11.50;;;;;;;;;;5057903;28;20438;-72
2021/01/18 13:50:19;;;;;;;18.80;10.57;;;;;;;;;;5056598;28;20524;-72
2021/01/18 13:52:47;;;;;;;18.20;10.23;;;;;;;;;;5056782;28;20810;-72
2021/01/18 13:55:16;;;;;;;18.83;9.93;;;;;;;;;;5057069;28;20485;-73
2021/01/18 13:57:43;;;;;;;19.33;10.67;;;;;;;;;;5056057;28;20451;-72
2021/01/18 14:00:10;;;;;;;21.30;9.43;;;;;;;;;;5055723;28;20484;-73
2021/01/18 14:02:38;;;;;;;16.00;10.00;;;;;;;;;;5056926;28;20473;-72
2021/01/18 14:05:06;;;;;;;16.90;10.37;;;;;;;;;;5054618;28;20449;-72
2021/01/18 14:07:33;;;;;;;19.77;11.13;;;;;;;;;;5056829;28;20453;-73
2021/01/18 14:10:00;;;;;;;20.97;11.67;;;;;;;;;;5055799;28;20449;-72
2021/01/18 14:12:28;;;;;;;21.57;11.10;;;;;;;;;;5055648;28;20453;-72
2021/01/18 14:14:55;;;;;;;20.90;11.97;;;;;;;;;;5055246;28;20519;-73
2021/01/18 14:17:25;;;;;;;20.17;12.90;;;;;;;;;;5055694;28;20558;-73
2021/01/18 14:19:53;;;;;;;20.17;11.63;;;;;;;;;;5055520;28;20797;-72
2021/01/18 14:22:22;;;;;;;23.43;11.83;;;;;;;;;;5055516;28;20444;-72
2021/01/18 14:24:49;;;;;;;24.47;12.60;;;;;;;;;;5055526;28;20453;-73
2021/01/18 14:27:16;;;;;;;25.40;13.37;;;;;;;;;;5055121;28;20494;-72
2021/01/18 14:29:44;;;;;;;24.90;13.47;;;;;;;;;;5055193;28;20449;-72
2021/01/18 14:32:12;;;;;;;24.10;13.27;;;;;;;;;;5055536;28;20456;-72
2021/01/18 14:34:39;;;;;;;18.63;12.77;;;;;;;;;;5055817;28;20511;-72
2021/01/18 14:37:07;;;;;;;21.37;11.47;;;;;;;;;;5056102;28;20503;-72
2021/01/18 14:39:35;;;;;;;21.97;11.50;;;;;;;;;;5056982;28;20509;-73
2021/01/18 14:42:02;;;;;;;24.07;12.70;;;;;;;;;;5056704;28;20453;-73
2021/01/18 14:44:29;;;;;;;19.33;11.90;;;;;;;;;;5057292;28;20510;-73
2021/01/18 14:46:57;;;;;;;21.53;12.33;;;;;;;;;;5062958;28;20457;-73
2021/01/18 14:49:24;;;;;;;19.87;12.90;;;;;;;;;;5056909;28;20445;-73
2021/01/18 14:51:51;;;;;;;22.47;11.77;;;;;;;;;;5056194;28;20469;-73
2021/01/18 14:54:18;;;;;;;22.13;11.50;;;;;;;;;;5052966;28;20484;-73